Time;durP1;ratioP1;P1;durP2;ratioP2;P2;SDS_P1;SDS_P2;PMS_P1;PMS_P2;Temp;Humidity;BMP_temperature;BMP_pressure;BME280_temperature;BME280_humidity;BME280_pressure;Samples;Min_cycle;Max_cycle;Signal;HPM_P1;HPM_P2
2023/03/04 00:02:00;;;;;;;5.78;2.38;;;8.90;69.80;;;;;;5077968;28;20028;-79
2023/03/04 00:04:25;;;;;;;4.57;2.40;;;8.90;69.80;;;;;;5064856;28;20377;-82
2023/03/04 00:06:51;;;;;;;5.82;2.30;;;8.90;69.90;;;;;;5073461;28;20164;-80
2023/03/04 00:09:18;;;;;;;3.75;2.20;;;8.90;69.90;;;;;;5083579;28;20557;-82
2023/03/04 00:11:43;;;;;;;5.57;2.00;;;8.80;69.90;;;;;;5053412;28;20500;-78
2023/03/04 00:14:09;;;;;;;5.47;2.47;;;8.90;70.00;;;;;;5065830;28;20495;-80
2023/03/04 00:16:35;;;;;;;3.00;1.73;;;8.80;70.00;;;;;;5079557;28;20126;-79
2023/03/04 00:19:01;;;;;;;3.57;2.27;;;8.80;70.00;;;;;;5048092;28;20119;-80
2023/03/04 00:21:27;;;;;;;3.33;1.80;;;8.80;70.20;;;;;;5073401;28;20081;-81
2023/03/04 00:23:53;;;;;;;2.63;1.75;;;8.80;70.20;;;;;;5079032;28;20027;-82
2023/03/04 00:26:19;;;;;;;3.72;1.83;;;8.80;70.20;;;;;;5033603;28;20051;-80
2023/03/04 00:28:45;;;;;;;4.47;2.00;;;8.80;70.20;;;;;;5056832;28;20031;-82
2023/03/04 00:31:11;;;;;;;4.10;1.77;;;8.80;70.30;;;;;;5053082;28;20025;-80
2023/03/04 00:33:37;;;;;;;5.00;1.77;;;8.80;70.20;;;;;;5058424;28;20032;-79
2023/03/04 00:36:04;;;;;;;4.10;1.90;;;8.80;70.30;;;;;;5040923;28;20060;-81
2023/03/04 00:38:30;;;;;;;2.58;1.60;;;8.80;70.40;;;;;;5090999;27;20024;-80
2023/03/04 00:40:55;;;;;;;3.35;1.60;;;8.80;70.50;;;;;;5038586;28;20021;-82
2023/03/04 00:43:22;;;;;;;2.13;1.40;;;8.80;70.50;;;;;;5056344;28;20033;-81
2023/03/04 00:45:47;;;;;;;3.97;1.80;;;8.80;70.50;;;;;;5036149;28;20400;-81
2023/03/04 00:48:15;;;;;;;4.25;1.60;;;8.80;70.50;;;;;;5054807;28;20524;-79
2023/03/04 00:50:41;;;;;;;4.40;1.57;;;8.80;70.60;;;;;;5049525;28;20102;-82
2023/03/04 00:53:07;;;;;;;3.97;1.58;;;8.80;70.70;;;;;;5054791;28;20320;-80
2023/03/04 00:55:32;;;;;;;3.58;1.40;;;8.70;70.50;;;;;;5058138;28;20848;-80
2023/03/04 00:57:58;;;;;;;3.60;1.50;;;8.80;70.60;;;;;;5048317;28;20576;-80
2023/03/04 01:00:24;;;;;;;4.10;1.70;;;8.80;70.70;;;;;;5060493;28;20031;-80
2023/03/04 01:02:50;;;;;;;3.87;1.60;;;8.70;70.70;;;;;;5034219;28;20032;-82
2023/03/04 01:05:16;;;;;;;3.63;1.52;;;8.80;70.90;;;;;;5044620;28;20613;-79
2023/03/04 01:07:41;;;;;;;5.00;1.63;;;8.80;70.90;;;;;;5055819;28;20040;-81
2023/03/04 01:10:09;;;;;;;3.87;1.57;;;8.80;70.90;;;;;;5059068;28;20119;-79
2023/03/04 01:12:34;;;;;;;4.82;1.52;;;8.80;70.90;;;;;;5061560;28;20024;-79
2023/03/04 01:15:00;;;;;;;3.35;1.45;;;8.80;70.90;;;;;;5031323;28;20168;-79
2023/03/04 01:17:26;;;;;;;4.33;1.63;;;8.80;71.00;;;;;;5061069;28;20024;-79
2023/03/04 01:19:52;;;;;;;4.50;1.42;;;8.80;71.00;;;;;;5055939;28;20029;-82
2023/03/04 01:22:18;;;;;;;5.20;1.90;;;8.80;71.10;;;;;;5043581;28;20031;-80
2023/03/04 01:24:45;;;;;;;4.17;2.00;;;8.80;71.20;;;;;;5041415;28;20155;-81
2023/03/04 01:27:11;;;;;;;3.38;1.40;;;8.80;71.30;;;;;;5041499;28;20523;-79
2023/03/04 01:29:36;;;;;;;4.03;1.55;;;8.80;71.30;;;;;;5033825;28;20025;-79
2023/03/04 01:32:02;;;;;;;4.83;1.50;;;8.80;71.30;;;;;;5052717;28;20032;-79
2023/03/04 01:34:28;;;;;;;5.18;1.50;;;8.80;71.30;;;;;;5057548;28;20027;-82
2023/03/04 01:36:54;;;;;;;2.45;1.50;;;8.80;71.40;;;;;;5046006;28;20024;-82
2023/03/04 01:39:19;;;;;;;5.10;1.47;;;8.80;71.50;;;;;;5037584;28;20008;-82
2023/03/04 01:41:45;;;;;;;5.63;1.97;;;8.80;71.50;;;;;;5060768;28;20494;-79
2023/03/04 01:44:11;;;;;;;3.17;1.48;;;8.80;71.50;;;;;;5042779;28;20499;-82
2023/03/04 01:46:39;;;;;;;4.00;1.88;;;8.70;71.40;;;;;;5048410;28;20138;-79
2023/03/04 01:49:06;;;;;;;4.07;1.58;;;8.70;71.40;;;;;;5055343;28;20058;-81
2023/03/04 01:51:31;;;;;;;3.20;1.50;;;8.70;71.60;;;;;;5042165;28;21538;-80
2023/03/04 01:53:57;;;;;;;2.65;1.30;;;8.70;71.60;;;;;;5058843;28;20020;-80
2023/03/04 01:56:44;;;;;;;3.13;1.52;;;8.70;71.70;;;;;;5037397;28;20134;-80
2023/03/04 01:59:17;;;;;;;3.20;1.40;;;8.70;72.10;;;;;;5033491;28;20036;-82
2023/03/04 02:01:49;;;;;;;5.77;1.50;;;8.70;71.90;;;;;;5039258;28;20051;-80
2023/03/04 02:04:17;;;;;;;3.80;1.80;;;8.70;72.00;;;;;;5045985;28;20041;-82
2023/03/04 02:06:45;;;;;;;2.67;1.40;;;8.70;71.90;;;;;;5029646;28;20063;-80
2023/03/04 02:09:10;;;;;;;5.07;1.90;;;8.70;71.90;;;;;;5036427;28;20386;-82
2023/03/04 02:11:37;;;;;;;3.33;1.43;;;8.70;72.00;;;;;;5053911;28;20217;-79
2023/03/04 02:14:04;;;;;;;3.20;1.45;;;8.70;72.00;;;;;;5043309;28;20547;-82
2023/03/04 02:16:31;;;;;;;3.05;1.38;;;8.70;72.00;;;;;;5048848;28;20545;-78
2023/03/04 02:18:57;;;;;;;4.15;1.60;;;8.70;72.10;;;;;;5054387;28;20385;-78
2023/03/04 02:21:32;;;;;;;3.80;1.50;;;8.70;72.20;;;;;;5038855;28;20179;-80
2023/03/04 02:24:09;;;;;;;2.90;1.30;;;8.70;72.20;;;;;;5046153;28;20578;-79
2023/03/04 02:26:35;;;;;;;4.57;1.75;;;8.60;72.20;;;;;;5064626;28;20082;-78
2023/03/04 02:29:02;;;;;;;5.03;1.60;;;8.60;72.10;;;;;;5075778;28;20489;-79
2023/03/04 02:31:35;;;;;;;4.07;1.40;;;8.60;72.10;;;;;;5053870;28;20515;-78
2023/03/04 02:34:22;;;;;;;4.28;1.30;;;8.60;72.20;;;;;;5068473;28;20351;-78
2023/03/04 02:36:50;;;;;;;3.97;1.57;;;8.60;72.20;;;;;;5074282;28;20217;-79
2023/03/04 02:39:40;;;;;;;2.05;1.30;;;8.60;72.20;;;;;;5065281;28;20028;-79
2023/03/04 02:42:06;;;;;;;3.35;1.38;;;8.60;72.50;;;;;;5075928;28;20016;-79
2023/03/04 02:44:35;;;;;;;3.63;1.33;;;8.60;72.20;;;;;;5063988;28;20044;-82
2023/03/04 02:47:01;;;;;;;3.22;1.60;;;8.60;72.40;;;;;;5068088;28;20032;-79
2023/03/04 02:49:30;;;;;;;3.97;1.60;;;8.60;72.30;;;;;;5069388;28;20020;-81
2023/03/04 02:52:05;;;;;;;2.90;1.30;;;8.60;72.40;;;;;;5074920;28;20152;-79
2023/03/04 02:54:31;;;;;;;4.85;1.77;;;8.60;72.50;;;;;;5086569;27;20046;-82
2023/03/04 02:57:00;;;;;;;4.20;1.70;;;8.60;72.40;;;;;;5105053;27;20032;-79
2023/03/04 02:59:26;;;;;;;4.18;1.50;;;8.60;72.50;;;;;;5073458;28;20030;-82
2023/03/04 03:01:52;;;;;;;3.90;1.40;;;8.60;72.50;;;;;;5090529;27;20113;-81
2023/03/04 03:04:19;;;;;;;3.95;1.50;;;8.60;72.50;;;;;;5075167;28;20049;-79
2023/03/04 03:06:45;;;;;;;4.25;1.50;;;8.50;72.50;;;;;;5056129;28;20258;-79
2023/03/04 03:09:11;;;;;;;3.72;1.45;;;8.60;72.50;;;;;;5076576;28;20423;-80
2023/03/04 03:11:37;;;;;;;3.20;1.17;;;8.60;72.50;;;;;;5062589;28;20034;-81
2023/03/04 03:14:03;;;;;;;3.08;1.27;;;8.60;72.60;;;;;;5062368;28;20023;-80
2023/03/04 03:16:29;;;;;;;3.58;1.30;;;8.60;72.50;;;;;;5055484;28;20028;-82
2023/03/04 03:18:55;;;;;;;2.90;1.43;;;8.60;72.50;;;;;;5070797;28;20043;-79
2023/03/04 03:21:22;;;;;;;5.28;1.30;;;8.60;72.50;;;;;;5063537;28;20044;-79
2023/03/04 03:23:47;;;;;;;4.25;1.50;;;8.60;72.50;;;;;;5070538;28;20110;-81
2023/03/04 03:26:13;;;;;;;4.33;1.40;;;8.60;72.50;;;;;;5089056;28;20528;-80
2023/03/04 03:28:39;;;;;;;4.32;1.30;;;8.60;72.60;;;;;;5067061;28;20027;-81
2023/03/04 03:31:05;;;;;;;3.47;1.48;;;8.60;72.60;;;;;;5079643;28;20024;-79
2023/03/04 03:33:31;;;;;;;3.93;1.50;;;8.60;72.60;;;;;;5079471;27;20503;-82
2023/03/04 03:35:57;;;;;;;3.78;1.45;;;8.50;72.60;;;;;;5056955;28;20710;-80
2023/03/04 03:38:22;;;;;;;3.58;1.48;;;8.50;72.70;;;;;;5063810;28;20473;-80
2023/03/04 03:40:48;;;;;;;4.20;1.70;;;8.50;72.70;;;;;;5075230;28;20282;-79
2023/03/04 03:43:14;;;;;;;4.85;1.35;;;8.50;72.80;;;;;;5058019;28;20081;-78
2023/03/04 03:45:40;;;;;;;4.17;1.70;;;8.50;72.90;;;;;;5078867;28;20094;-81
2023/03/04 03:48:05;;;;;;;3.25;1.30;;;8.50;72.90;;;;;;5040709;28;20111;-79
2023/03/04 03:50:32;;;;;;;3.17;1.30;;;8.50;73.00;;;;;;5069506;28;20055;-82
2023/03/04 03:52:57;;;;;;;4.50;1.35;;;8.50;73.00;;;;;;5061123;28;20711;-78
2023/03/04 03:55:23;;;;;;;3.25;1.48;;;8.50;73.10;;;;;;5081207;28;20020;-82
2023/03/04 03:57:49;;;;;;;2.63;1.03;;;8.50;73.10;;;;;;5052072;28;20229;-81
2023/03/04 04:00:15;;;;;;;2.15;1.10;;;8.50;73.10;;;;;;5074409;28;20022;-79
2023/03/04 04:02:41;;;;;;;2.88;1.27;;;8.50;73.10;;;;;;5038646;28;20119;-81
2023/03/04 04:05:09;;;;;;;2.90;1.37;;;8.50;73.10;;;;;;5072202;28;20024;-80
2023/03/04 04:07:36;;;;;;;2.75;1.23;;;8.50;73.10;;;;;;5099542;28;20043;-79
2023/03/04 04:10:03;;;;;;;2.55;1.20;;;8.50;73.20;;;;;;5093540;28;20100;-82
2023/03/04 04:12:28;;;;;;;2.00;1.00;;;8.50;73.30;;;;;;5083434;28;20030;-82
2023/03/04 04:14:54;;;;;;;3.87;1.47;;;8.50;73.30;;;;;;5058320;28;20023;-80
2023/03/04 04:17:20;;;;;;;2.65;1.20;;;8.50;73.50;;;;;;5050643;28;20023;-82
2023/03/04 04:19:46;;;;;;;3.53;1.10;;;8.50;73.30;;;;;;5095285;28;20243;-80
2023/03/04 04:22:17;;;;;;;3.55;1.40;;;8.50;73.40;;;;;;5093400;28;20023;-82
2023/03/04 04:24:43;;;;;;;3.45;1.35;;;8.50;73.50;;;;;;5068156;28;20251;-79
2023/03/04 04:27:09;;;;;;;3.20;1.33;;;8.50;73.40;;;;;;5080519;28;20311;-80
2023/03/04 04:29:35;;;;;;;2.42;1.10;;;8.50;73.50;;;;;;5099967;27;20294;-80
2023/03/04 04:32:01;;;;;;;2.07;1.07;;;8.50;73.50;;;;;;5095734;28;20418;-80
2023/03/04 04:34:26;;;;;;;2.58;1.00;;;8.50;73.60;;;;;;5055175;28;20031;-81
2023/03/04 04:36:52;;;;;;;6.65;1.55;;;8.50;73.60;;;;;;5089374;28;20129;-80
2023/03/04 04:39:18;;;;;;;4.27;1.40;;;8.50;73.60;;;;;;5061498;28;20989;-82
2023/03/04 04:41:45;;;;;;;2.00;1.20;;;8.50;73.80;;;;;;5079509;28;20229;-79
2023/03/04 04:44:12;;;;;;;3.50;1.25;;;8.50;73.80;;;;;;5064983;28;20768;-82
2023/03/04 04:46:38;;;;;;;3.92;1.30;;;8.50;73.90;;;;;;5076121;28;20111;-80
2023/03/04 04:49:05;;;;;;;4.27;1.30;;;8.50;73.90;;;;;;5055614;28;20361;-81
2023/03/04 04:51:31;;;;;;;3.53;1.30;;;8.50;74.00;;;;;;5089429;27;20794;-80
2023/03/04 04:53:59;;;;;;;3.83;1.20;;;8.50;73.90;;;;;;5082589;27;20491;-79
2023/03/04 04:56:25;;;;;;;2.55;1.13;;;8.50;73.90;;;;;;5100845;27;20492;-82
2023/03/04 04:58:53;;;;;;;4.10;1.50;;;8.50;73.90;;;;;;5058468;27;20054;-80
2023/03/04 05:01:20;;;;;;;3.00;1.37;;;8.50;74.00;;;;;;5082431;27;20064;-82
2023/03/04 05:03:45;;;;;;;3.15;1.42;;;8.40;74.10;;;;;;5093292;27;20236;-78
2023/03/04 05:06:13;;;;;;;3.45;1.35;;;8.50;74.10;;;;;;5046815;27;20031;-81
2023/03/04 05:08:39;;;;;;;6.47;2.10;;;8.50;74.20;;;;;;5080130;27;20119;-79
2023/03/04 05:11:06;;;;;;;2.73;1.53;;;8.50;74.10;;;;;;5088221;27;20473;-80
2023/03/04 05:13:32;;;;;;;5.50;1.70;;;8.50;74.10;;;;;;5057664;27;20258;-79
2023/03/04 05:15:58;;;;;;;3.95;1.63;;;8.50;74.10;;;;;;5091200;27;20024;-79
2023/03/04 05:18:25;;;;;;;3.08;1.73;;;8.40;74.10;;;;;;5070953;27;20031;-82
2023/03/04 05:20:52;;;;;;;5.67;1.90;;;8.40;74.10;;;;;;5058033;27;20130;-80
2023/03/04 05:23:18;;;;;;;4.28;1.95;;;8.40;74.20;;;;;;5074419;27;20703;-81
2023/03/04 05:25:44;;;;;;;2.60;1.55;;;8.40;74.20;;;;;;5083129;27;20118;-80
2023/03/04 05:28:11;;;;;;;3.30;1.70;;;8.40;74.20;;;;;;5066578;27;20567;-81
2023/03/04 05:30:41;;;;;;;3.87;2.07;;;8.40;74.30;;;;;;5060502;27;22812;-79
2023/03/04 05:33:07;;;;;;;3.92;1.77;;;8.40;74.50;;;;;;5074103;27;20019;-80
2023/03/04 05:35:38;;;;;;;3.42;1.80;;;8.40;74.40;;;;;;5054221;27;20084;-80
2023/03/04 05:38:06;;;;;;;3.47;1.90;;;8.40;74.60;;;;;;5085597;27;20468;-80
2023/03/04 05:40:33;;;;;;;3.60;1.95;;;8.40;74.50;;;;;;5072480;28;20217;-79
2023/03/04 05:42:58;;;;;;;5.70;2.33;;;8.40;74.50;;;;;;5094869;27;20069;-79
2023/03/04 05:45:25;;;;;;;2.78;1.70;;;8.40;74.60;;;;;;5048464;27;20165;-82
2023/03/04 05:47:52;;;;;;;2.42;1.52;;;8.40;74.60;;;;;;5096310;27;20357;-79
2023/03/04 05:50:18;;;;;;;3.95;1.83;;;8.40;74.70;;;;;;5063887;27;20457;-81
2023/03/04 05:52:44;;;;;;;4.27;1.87;;;8.40;74.70;;;;;;5100584;27;20441;-82
2023/03/04 05:55:09;;;;;;;5.13;2.30;;;8.40;74.70;;;;;;5073475;27;20032;-80
2023/03/04 05:57:35;;;;;;;3.28;1.67;;;8.40;74.70;;;;;;5063460;27;20418;-81
2023/03/04 06:00:04;;;;;;;3.50;1.53;;;8.40;74.70;;;;;;5072139;27;20047;-79
2023/03/04 06:02:30;;;;;;;4.80;2.00;;;8.40;74.80;;;;;;5052706;27;20035;-81
2023/03/04 06:04:56;;;;;;;3.78;1.42;;;8.40;74.70;;;;;;5072995;27;20076;-81
2023/03/04 06:07:22;;;;;;;3.33;1.40;;;8.40;74.60;;;;;;5063971;27;20106;-82
2023/03/04 06:09:47;;;;;;;3.05;1.40;;;8.40;74.60;;;;;;5067813;27;20566;-80
2023/03/04 06:12:13;;;;;;;2.70;1.30;;;8.30;74.50;;;;;;5099804;27;20122;-82
2023/03/04 06:14:39;;;;;;;4.30;1.55;;;8.30;74.60;;;;;;5081344;27;20236;-79
2023/03/04 06:17:05;;;;;;;3.78;1.40;;;8.30;74.60;;;;;;5071069;27;20233;-79
2023/03/04 06:19:31;;;;;;;2.30;1.17;;;8.30;74.60;;;;;;5073743;27;20023;-82
2023/03/04 06:21:58;;;;;;;2.72;1.40;;;8.30;74.70;;;;;;5077143;27;20080;-79
2023/03/04 06:24:23;;;;;;;3.90;1.55;;;8.30;74.80;;;;;;5060868;27;20028;-82
2023/03/04 06:26:49;;;;;;;2.20;1.50;;;8.30;74.80;;;;;;5075456;27;20351;-78
2023/03/04 06:29:15;;;;;;;3.88;1.60;;;8.30;74.80;;;;;;5080448;28;20114;-82
2023/03/04 06:31:41;;;;;;;3.57;1.20;;;8.30;74.80;;;;;;5053295;27;21876;-80
2023/03/04 06:34:07;;;;;;;4.32;2.28;;;8.30;74.90;;;;;;5098986;27;20039;-79
2023/03/04 06:36:33;;;;;;;7.30;2.80;;;8.30;75.00;;;;;;5063812;27;27222;-78
2023/03/04 06:39:04;;;;;;;10.93;3.40;;;8.40;75.00;;;;;;5078254;28;20443;-79
2023/03/04 06:41:31;;;;;;;6.60;2.70;;;8.40;75.10;;;;;;5059721;28;20031;-82
2023/03/04 06:43:57;;;;;;;6.00;3.00;;;8.40;75.10;;;;;;5081658;28;20061;-80
2023/03/04 06:46:22;;;;;;;6.30;2.67;;;8.30;75.10;;;;;;5073860;27;20459;-82
2023/03/04 06:48:48;;;;;;;5.17;2.60;;;8.40;75.20;;;;;;5087067;27;20114;-80
2023/03/04 06:51:14;;;;;;;4.30;2.00;;;8.40;75.20;;;;;;5072047;27;20050;-82
2023/03/04 06:53:40;;;;;;;4.95;2.30;;;8.40;75.20;;;;;;5054460;27;20560;-79
2023/03/04 06:56:08;;;;;;;4.35;1.90;;;8.40;75.30;;;;;;5070794;28;20023;-79
2023/03/04 06:58:34;;;;;;;5.37;2.17;;;8.40;75.30;;;;;;5079519;27;20263;-79
2023/03/04 07:01:14;;;;;;;6.25;2.53;;;8.40;75.30;;;;;;5100948;27;20044;-82
2023/03/04 07:03:40;;;;;;;8.23;3.38;;;8.40;75.60;;;;;;5083883;27;20638;-79
2023/03/04 07:06:08;;;;;;;7.13;3.80;;;8.40;75.40;;;;;;5072825;27;20019;-80
2023/03/04 07:08:34;;;;;;;8.10;3.50;;;8.40;75.40;;;;;;5067788;27;20214;-79
2023/03/04 07:10:59;;;;;;;6.72;2.30;;;8.40;75.40;;;;;;5075189;27;20121;-78
2023/03/04 07:13:25;;;;;;;3.97;1.67;;;8.50;75.60;;;;;;5093559;27;20034;-82
2023/03/04 07:15:52;;;;;;;4.00;1.70;;;8.50;75.60;;;;;;5077692;27;20296;-79
2023/03/04 07:18:18;;;;;;;2.60;1.48;;;8.50;75.70;;;;;;5067221;27;20028;-82
2023/03/04 07:20:44;;;;;;;3.13;1.40;;;8.50;75.80;;;;;;5074274;27;20137;-80
2023/03/04 07:23:09;;;;;;;3.00;1.50;;;8.50;75.80;;;;;;5068712;27;20031;-79
2023/03/04 07:25:35;;;;;;;2.77;0.90;;;8.60;75.80;;;;;;5063274;28;20948;-79
2023/03/04 07:28:01;;;;;;;1.13;0.80;;;8.60;75.80;;;;;;5098763;28;20070;-79
2023/03/04 07:30:26;;;;;;;2.20;0.90;;;8.60;75.80;;;;;;5094363;27;20020;-82
2023/03/04 07:32:55;;;;;;;2.58;1.02;;;8.60;75.90;;;;;;5065254;28;20586;-79
2023/03/04 07:35:21;;;;;;;2.80;0.90;;;8.60;76.00;;;;;;5080487;28;20119;-82
2023/03/04 07:37:47;;;;;;;1.98;0.80;;;8.60;76.00;;;;;;5071506;28;21277;-80
2023/03/04 07:40:12;;;;;;;2.33;0.80;;;8.60;76.00;;;;;;5065328;28;20619;-82
2023/03/04 07:42:38;;;;;;;1.88;0.70;;;8.60;76.10;;;;;;5060207;28;20185;-80
2023/03/04 07:45:05;;;;;;;5.03;1.00;;;8.60;76.10;;;;;;5097887;28;20613;-79
2023/03/04 07:47:30;;;;;;;2.38;0.95;;;8.70;76.10;;;;;;5073639;28;20387;-81
2023/03/04 07:49:56;;;;;;;2.92;0.90;;;8.70;76.20;;;;;;5083498;28;20019;-79
2023/03/04 07:52:22;;;;;;;2.77;0.87;;;8.70;76.30;;;;;;5081769;28;20355;-82
2023/03/04 07:54:48;;;;;;;1.73;0.70;;;8.70;76.40;;;;;;5090794;27;20028;-81
2023/03/04 07:57:14;;;;;;;1.53;0.70;;;8.80;76.30;;;;;;5083961;28;20026;-82
2023/03/04 07:59:39;;;;;;;3.38;0.77;;;8.80;76.30;;;;;;5076595;28;20225;-80
2023/03/04 08:02:06;;;;;;;0.77;0.60;;;8.80;76.40;;;;;;5083639;28;20031;-80
2023/03/04 08:04:31;;;;;;;1.70;0.57;;;8.80;76.30;;;;;;5081580;28;20054;-79
2023/03/04 08:06:57;;;;;;;1.70;1.02;;;8.80;76.30;;;;;;5079333;28;20106;-82
2023/03/04 08:09:23;;;;;;;2.77;0.60;;;8.80;76.30;;;;;;5030328;28;20123;-81
2023/03/04 08:11:49;;;;;;;1.13;0.60;;;8.90;77.10;;;;;;5092485;28;20023;-81
2023/03/04 08:14:15;;;;;;;1.88;0.65;;;8.90;76.50;;;;;;5044489;28;20142;-82
2023/03/04 08:16:41;;;;;;;1.83;0.60;;;8.90;76.50;;;;;;5075132;28;20155;-82
2023/03/04 08:19:07;;;;;;;1.67;0.60;;;8.90;76.70;;;;;;5087015;28;20036;-80
2023/03/04 08:21:33;;;;;;;3.33;0.60;;;9.00;76.80;;;;;;5082021;28;20023;-79
2023/03/04 08:24:01;;;;;;;1.20;0.50;;;9.00;76.80;;;;;;5048782;28;20053;-80
2023/03/04 08:26:30;;;;;;;1.63;0.55;;;9.10;76.90;;;;;;5095374;27;20098;-81
2023/03/04 08:28:57;;;;;;;1.67;0.68;;;9.10;76.90;;;;;;5073156;27;20135;-80
2023/03/04 08:31:23;;;;;;;2.00;0.65;;;9.10;77.00;;;;;;5083139;27;20024;-82
2023/03/04 08:33:50;;;;;;;3.03;0.70;;;9.20;77.00;;;;;;5094181;27;20196;-82
2023/03/04 08:36:15;;;;;;;2.05;0.50;;;9.20;77.10;;;;;;5088142;27;20231;-83
2023/03/04 08:38:42;;;;;;;1.58;0.50;;;9.30;77.30;;;;;;5089792;27;20027;-79
2023/03/04 08:41:08;;;;;;;2.13;0.60;;;9.30;77.20;;;;;;5040828;27;20027;-82
2023/03/04 08:43:34;;;;;;;2.10;0.67;;;9.40;77.20;;;;;;5091305;27;20524;-79
2023/03/04 08:45:59;;;;;;;2.13;0.60;;;9.40;77.20;;;;;;5069003;27;20016;-80
2023/03/04 08:48:25;;;;;;;0.90;0.50;;;9.50;77.20;;;;;;5049345;27;20055;-82
2023/03/04 08:50:52;;;;;;;3.00;0.60;;;9.50;77.20;;;;;;5053021;28;20484;-81
2023/03/04 08:53:18;;;;;;;2.00;0.68;;;9.50;77.20;;;;;;5059907;27;20015;-82
2023/03/04 08:55:45;;;;;;;1.77;0.63;;;9.60;77.40;;;;;;5048411;27;20232;-79
2023/03/04 08:58:11;;;;;;;1.13;0.50;;;9.60;77.70;;;;;;5071932;28;20062;-79
2023/03/04 09:00:41;;;;;;;1.00;0.70;;;9.70;77.90;;;;;;5063428;27;20035;-80
2023/03/04 09:03:11;;;;;;;1.83;0.63;;;9.80;77.90;;;;;;5077196;28;20034;-79
2023/03/04 09:05:37;;;;;;;0.93;0.45;;;9.80;77.90;;;;;;5096946;27;20525;-81
2023/03/04 09:08:03;;;;;;;1.60;0.60;;;9.90;78.10;;;;;;5063465;27;20034;-80
2023/03/04 09:10:29;;;;;;;1.95;0.70;;;10.00;78.50;;;;;;5070928;27;20081;-81
2023/03/04 09:12:55;;;;;;;1.57;0.70;;;10.10;79.20;;;;;;5031839;27;20027;-79
2023/03/04 09:15:21;;;;;;;1.25;0.52;;;10.20;79.70;;;;;;5059789;27;20828;-82
2023/03/04 09:17:46;;;;;;;0.97;0.50;;;10.50;80.20;;;;;;5079333;27;20602;-80
2023/03/04 09:20:12;;;;;;;1.67;0.75;;;10.70;80.30;;;;;;5098016;27;20054;-82
2023/03/04 09:22:39;;;;;;;3.90;1.30;;;10.90;80.10;;;;;;5080050;27;20554;-80
2023/03/04 09:25:06;;;;;;;2.45;0.70;;;11.10;79.70;;;;;;5072484;27;20018;-79
2023/03/04 09:27:32;;;;;;;1.33;0.70;;;11.20;78.90;;;;;;5072774;27;20854;-80
2023/03/04 09:29:57;;;;;;;2.72;0.80;;;11.20;78.40;;;;;;5064473;27;20345;-80
2023/03/04 09:32:23;;;;;;;2.10;0.70;;;11.30;78.20;;;;;;5067695;27;20499;-82
2023/03/04 09:34:49;;;;;;;3.35;0.60;;;11.30;77.90;;;;;;5068405;27;20504;-80
2023/03/04 09:37:15;;;;;;;2.20;0.70;;;11.30;77.80;;;;;;5083030;27;20304;-82
2023/03/04 09:39:40;;;;;;;0.90;0.70;;;11.30;77.80;;;;;;5050034;27;20189;-79
2023/03/04 09:42:09;;;;;;;2.10;0.60;;;11.20;77.60;;;;;;5054577;28;20032;-79
2023/03/04 09:44:42;;;;;;;1.50;0.60;;;11.20;77.60;;;;;;5050557;27;20516;-79
2023/03/04 09:47:20;;;;;;;1.27;0.63;;;11.20;77.70;;;;;;5086066;27;20123;-79
2023/03/04 09:50:01;;;;;;;1.90;0.63;;;11.20;77.90;;;;;;5077999;27;20580;-79
2023/03/04 09:52:48;;;;;;;0.68;0.60;;;11.20;77.90;;;;;;5090476;27;21433;-81
2023/03/04 09:55:32;;;;;;;2.30;0.90;;;11.20;78.00;;;;;;5074580;27;20045;-81
2023/03/04 09:58:04;;;;;;;1.77;0.98;;;11.10;77.80;;;;;;5031131;27;20123;-80
2023/03/04 10:00:42;;;;;;;2.10;1.20;;;11.10;77.90;;;;;;5093858;27;20039;-82
2023/03/04 10:03:08;;;;;;;2.85;0.90;;;11.10;78.10;;;;;;5077247;27;20039;-78
2023/03/04 10:05:47;;;;;;;1.48;0.73;;;11.10;77.90;;;;;;5049469;27;20153;-79
2023/03/04 10:08:42;;;;;;;2.60;1.00;;;11.00;78.60;;;;;;5068482;28;20054;-81
2023/03/04 10:11:14;;;;;;;2.47;0.90;;;11.00;79.20;;;;;;5045591;27;20224;-79
2023/03/04 10:13:55;;;;;;;3.55;1.10;;;11.10;78.90;;;;;;5032172;28;20035;-81
2023/03/04 10:16:24;;;;;;;2.42;0.85;;;11.00;78.50;;;;;;5079110;27;20028;-80
2023/03/04 10:19:13;;;;;;;1.15;0.80;;;11.10;78.60;;;;;;5061010;27;20050;-81
2023/03/04 10:21:48;;;;;;;3.43;1.00;;;11.10;79.30;;;;;;5089383;27;20023;-81
2023/03/04 10:24:21;;;;;;;3.35;1.10;;;11.20;79.70;;;;;;5078978;27;20338;-81
2023/03/04 10:26:52;;;;;;;2.67;0.90;;;11.30;79.80;;;;;;5086392;27;20049;-82
2023/03/04 10:29:21;;;;;;;2.53;1.05;;;11.40;79.80;;;;;;5070324;27;20035;-81
2023/03/04 10:31:48;;;;;;;1.90;1.15;;;11.40;79.70;;;;;;5083271;27;20149;-81
2023/03/04 10:34:16;;;;;;;2.20;1.00;;;11.60;79.60;;;;;;5068956;27;20051;-78
2023/03/04 10:37:04;;;;;;;2.58;1.13;;;11.60;80.40;;;;;;5074825;27;20085;-81
2023/03/04 10:39:36;;;;;;;2.05;1.05;;;11.80;79.60;;;;;;5077926;28;20031;-80
2023/03/04 10:42:14;;;;;;;2.10;1.13;;;11.90;80.00;;;;;;5067197;27;20031;-80
2023/03/04 10:44:54;;;;;;;2.97;1.15;;;12.10;79.90;;;;;;5051821;27;20123;-81
2023/03/04 10:47:30;;;;;;;2.17;1.00;;;12.30;80.00;;;;;;5095747;27;20051;-81
2023/03/04 10:50:01;;;;;;;3.10;1.10;;;12.40;79.90;;;;;;5076808;27;20316;-82
2023/03/04 10:52:37;;;;;;;2.35;1.10;;;12.60;79.20;;;;;;5092173;27;20023;-79
2023/03/04 10:55:15;;;;;;;2.88;1.20;;;12.70;78.60;;;;;;5062682;28;20035;-81
2023/03/04 10:57:43;;;;;;;2.42;1.10;;;12.80;77.70;;;;;;5045267;27;20028;-81
2023/03/04 11:00:28;;;;;;;2.80;0.97;;;12.80;77.80;;;;;;5050885;27;20567;-79
2023/03/04 11:03:26;;;;;;;1.60;0.80;;;12.90;77.70;;;;;;5070235;27;20125;-81
2023/03/04 11:06:16;;;;;;;1.60;0.75;;;12.90;76.20;;;;;;5073033;27;20054;-81
2023/03/04 11:08:43;;;;;;;2.35;0.73;;;12.90;76.50;;;;;;5092815;27;20434;-81
2023/03/04 11:11:22;;;;;;;1.95;0.85;;;12.90;77.10;;;;;;5078081;28;20398;-79
2023/03/04 11:13:56;;;;;;;2.40;1.00;;;12.90;76.70;;;;;;5047081;27;20583;-80
2023/03/04 11:16:25;;;;;;;1.42;0.80;;;12.90;77.20;;;;;;5050831;28;20038;-81
2023/03/04 11:18:54;;;;;;;2.60;0.90;;;13.00;77.60;;;;;;5076888;28;20664;-79
2023/03/04 11:21:27;;;;;;;1.45;0.80;;;13.10;77.70;;;;;;5064067;27;20487;-81
2023/03/04 11:23:58;;;;;;;2.25;0.70;;;13.20;77.40;;;;;;5091868;27;20708;-81
2023/03/04 11:26:34;;;;;;;1.30;0.73;;;13.30;77.30;;;;;;5083225;27;20567;-82
2023/03/04 11:29:17;;;;;;;2.63;1.05;;;13.40;76.80;;;;;;5045092;28;20400;-81
2023/03/04 11:31:56;;;;;;;2.50;0.90;;;13.50;75.90;;;;;;5057374;28;20235;-79
2023/03/04 11:34:46;;;;;;;1.67;0.80;;;13.50;76.10;;;;;;5097791;27;20656;-82
2023/03/04 11:37:18;;;;;;;2.85;0.90;;;13.60;76.00;;;;;;5067904;28;20453;-80
2023/03/04 11:40:07;;;;;;;2.00;0.90;;;13.60;76.80;;;;;;5038075;28;20247;-81
2023/03/04 11:42:48;;;;;;;0.95;0.70;;;13.80;76.20;;;;;;5069655;28;20019;-82
2023/03/04 11:45:30;;;;;;;2.05;0.68;;;13.90;76.20;;;;;;5057918;28;20361;-82
2023/03/04 11:48:28;;;;;;;2.15;0.88;;;14.00;76.30;;;;;;5071142;28;20226;-82
2023/03/04 11:51:09;;;;;;;1.30;0.85;;;14.00;74.60;;;;;;5065331;28;20599;-80
2023/03/04 11:54:07;;;;;;;1.83;0.80;;;14.00;74.60;;;;;;5050948;28;20682;-82
2023/03/04 11:57:04;;;;;;;3.08;0.90;;;13.90;73.60;;;;;;5082926;28;20028;-82
2023/03/04 11:59:45;;;;;;;1.50;0.80;;;13.70;73.10;;;;;;5058959;28;20142;-82
2023/03/04 12:02:18;;;;;;;7.93;2.65;;;13.60;73.70;;;;;;5103161;27;21202;-79
2023/03/04 12:05:02;;;;;;;9.63;3.40;;;13.50;73.40;;;;;;5036108;27;20125;-80
2023/03/04 12:07:40;;;;;;;9.33;3.33;;;13.40;72.90;;;;;;5049506;27;20111;-82
2023/03/04 12:10:32;;;;;;;7.57;2.30;;;13.20;73.00;;;;;;5082701;28;20020;-79
2023/03/04 12:13:16;;;;;;;4.05;1.70;;;13.10;73.10;;;;;;5045304;28;20035;-79
2023/03/04 12:15:41;;;;;;;2.45;1.20;;;13.00;73.40;;;;;;5058956;27;20728;-78
2023/03/04 12:18:17;;;;;;;2.17;1.30;;;12.90;74.20;;;;;;5061206;27;20124;-79
2023/03/04 12:20:49;;;;;;;4.43;1.83;;;12.90;74.40;;;;;;5054666;27;20064;-78
2023/03/04 12:23:30;;;;;;;2.05;1.38;;;12.80;74.70;;;;;;5066267;27;20119;-79
2023/03/04 12:26:20;;;;;;;2.58;1.60;;;12.80;74.10;;;;;;5081756;27;20100;-80
2023/03/04 12:29:00;;;;;;;2.35;1.42;;;12.80;74.40;;;;;;5065378;27;20047;-79
2023/03/04 12:31:43;;;;;;;1.70;1.13;;;12.80;74.40;;;;;;5063812;27;20384;-81
2023/03/04 12:34:27;;;;;;;2.53;1.33;;;12.80;74.40;;;;;;5055024;27;20024;-79
2023/03/04 12:37:38;;;;;;;4.10;1.40;;;12.80;74.10;;;;;;5087238;27;20571;-78
2023/03/04 12:40:26;;;;;;;1.80;1.40;;;12.70;74.00;;;;;;5037495;28;20059;-81
2023/03/04 12:43:21;;;;;;;3.88;1.40;;;12.70;73.80;;;;;;5088173;27;20772;-80
2023/03/04 12:46:06;;;;;;;2.63;1.60;;;12.70;74.00;;;;;;5048532;27;20328;-79
2023/03/04 12:48:41;;;;;;;2.67;1.20;;;12.60;74.10;;;;;;5063958;27;20035;-81
2023/03/04 12:51:25;;;;;;;1.40;1.15;;;12.60;74.50;;;;;;5081889;27;20168;-79
2023/03/04 12:54:24;;;;;;;2.22;1.13;;;12.60;74.80;;;;;;5071921;28;20636;-79
2023/03/04 12:56:58;;;;;;;1.58;0.95;;;12.70;75.00;;;;;;5088903;27;20277;-80
2023/03/04 12:59:27;;;;;;;1.90;1.10;;;12.70;75.40;;;;;;5060661;27;20472;-81
2023/03/04 13:02:01;;;;;;;1.73;1.20;;;12.80;75.60;;;;;;5076582;27;20271;-81
2023/03/04 13:04:32;;;;;;;1.98;1.40;;;12.90;75.90;;;;;;5054959;27;20067;-81
2023/03/04 13:07:13;;;;;;;1.55;1.20;;;13.00;75.60;;;;;;5069552;27;20144;-78